createdAt,value
2022-08-18T00:02:17.515Z,99424.94
2022-08-18T00:04:49.195Z,99418.66
2022-08-18T00:07:21.432Z,99420.50
2022-08-18T00:09:49.590Z,99425.12
2022-08-18T00:12:24.250Z,99413.94
2022-08-18T00:14:52.699Z,99417.44
2022-08-18T00:17:20.462Z,99409.06
2022-08-18T00:19:48.542Z,99412.13
2022-08-18T00:22:19.642Z,99412.81
2022-08-18T00:24:53.019Z,99409.31
2022-08-18T00:27:28.638Z,99411.84
2022-08-18T00:29:59.944Z,99408.38
2022-08-18T00:32:34.184Z,99403.69
2022-08-18T00:35:18.567Z,99408.59
2022-08-18T00:37:47.182Z,99408.75
2022-08-18T00:40:21.058Z,99407.88
2022-08-18T00:42:52.704Z,99404.22
2022-08-18T00:45:25.432Z,99416.84
2022-08-18T00:47:54.010Z,99416.34
2022-08-18T00:51:00.866Z,99417.56
2022-08-18T00:53:33.457Z,99418.47
2022-08-18T00:56:06.953Z,99423.75
2022-08-18T00:58:50.942Z,99427.38
2022-08-18T01:01:23.403Z,99423.88
2022-08-18T01:03:54.456Z,99429.53
2022-08-18T01:06:39.839Z,99422.41
2022-08-18T01:09:08.815Z,99420.56
2022-08-18T01:11:38.260Z,99427.13
2022-08-18T01:14:08.561Z,99432.50
2022-08-18T01:16:57.403Z,99435.41
2022-08-18T01:19:45.318Z,99435.00
2022-08-18T01:22:23.030Z,99432.44
2022-08-18T01:25:10.608Z,99439.22
2022-08-18T01:27:39.116Z,99440.94
2022-08-18T01:30:11.898Z,99441.44
2022-08-18T01:32:41.681Z,99438.38
2022-08-18T01:35:10.686Z,99433.91
2022-08-18T01:37:38.507Z,99438.13
2022-08-18T01:41:22.319Z,99435.78
2022-08-18T01:42:56.908Z,99434.81
2022-08-18T01:45:24.938Z,99439.75
2022-08-18T01:47:52.314Z,99441.34
2022-08-18T01:50:19.965Z,99448.66
2022-08-18T01:52:47.816Z,99446.69
2022-08-18T01:55:15.314Z,99446.91
2022-08-18T01:57:45.113Z,99449.81
2022-08-18T02:00:16.144Z,99451.47
2022-08-18T02:02:43.959Z,99449.91
2022-08-18T02:05:16.424Z,99444.97
2022-08-18T02:07:44.643Z,99447.59
2022-08-18T02:10:12.569Z,99449.75
2022-08-18T02:12:44.371Z,99437.56
2022-08-18T02:15:12.387Z,99441.25
2022-08-18T02:17:42.370Z,99438.81
2022-08-18T02:20:13.627Z,99448.56
2022-08-18T02:22:41.793Z,99445.22
2022-08-18T02:25:10.137Z,99446.38
2022-08-18T02:27:38.143Z,99442.34
2022-08-18T02:30:09.177Z,99443.91
2022-08-18T02:32:36.777Z,99452.75
2022-08-18T02:35:06.403Z,99456.28
2022-08-18T02:37:42.179Z,99452.41
2022-08-18T02:40:15.207Z,99457.69
2022-08-18T02:42:44.916Z,99453.41
2022-08-18T02:45:13.734Z,99452.97
2022-08-18T02:47:41.291Z,99458.25
2022-08-18T02:50:11.898Z,99456.88
2022-08-18T02:52:40.588Z,99455.97
2022-08-18T02:55:09.042Z,99458.75
2022-08-18T02:57:36.653Z,99460.25
2022-08-18T03:00:04.728Z,99460.75
2022-08-18T03:02:32.426Z,99474.66
2022-08-18T03:04:59.914Z,99465.69
2022-08-18T03:07:27.580Z,99468.44
2022-08-18T03:09:54.977Z,99479.16
2022-08-18T03:12:22.400Z,99480.13
2022-08-18T03:14:50.249Z,99473.94
2022-08-18T03:17:17.677Z,99478.22
2022-08-18T03:19:46.792Z,99477.16
2022-08-18T03:22:27.590Z,99480.66
2022-08-18T03:24:58.057Z,99476.91
2022-08-18T03:27:26.282Z,99474.81
2022-08-18T03:29:53.742Z,99478.22
2022-08-18T03:32:21.279Z,99466.50
2022-08-18T03:34:49.019Z,99472.66
2022-08-18T03:37:16.444Z,99467.75
2022-08-18T03:39:43.988Z,99470.13
2022-08-18T03:42:11.823Z,99468.19
2022-08-18T03:44:39.548Z,99469.19
2022-08-18T03:47:10.926Z,99469.81
2022-08-18T03:49:39.306Z,99472.88
2022-08-18T03:52:10.583Z,99471.09
2022-08-18T03:54:39.248Z,99470.66
2022-08-18T03:59:56.468Z,99468.37
2022-08-18T04:02:24.183Z,99478.19
2022-08-18T04:04:51.953Z,99484.28
2022-08-18T04:07:19.515Z,99464.88
2022-08-18T04:09:47.146Z,99471.53
2022-08-18T04:12:16.569Z,99473.09
2022-08-18T04:14:48.459Z,99473.91
2022-08-18T04:17:23.365Z,99473.44
2022-08-18T04:19:52.583Z,99475.16
2022-08-18T04:22:20.666Z,99466.81
2022-08-18T04:24:50.377Z,99469.84
2022-08-18T04:27:19.355Z,99473.91
2022-08-18T04:29:47.410Z,99469.69
2022-08-18T04:32:15.204Z,99471.59
2022-08-18T04:34:42.624Z,99474.87
2022-08-18T04:37:10.944Z,99466.69
2022-08-18T04:39:38.544Z,99465.66
2022-08-18T04:42:06.185Z,99462.03
2022-08-18T04:44:35.400Z,99469.03
2022-08-18T04:47:02.920Z,99476.31
2022-08-18T04:49:32.061Z,99472.47
2022-08-18T04:52:36.588Z,99483.31
2022-08-18T04:55:06.558Z,99482.06
2022-08-18T04:57:35.187Z,99483.09
2022-08-18T05:00:05.820Z,99484.84
2022-08-18T05:02:33.636Z,99476.38
2022-08-18T05:05:04.540Z,99472.12
2022-08-18T05:07:32.508Z,99474.19
2022-08-18T05:09:59.922Z,99469.03
2022-08-18T05:12:28.896Z,99461.78
2022-08-18T05:14:59.109Z,99461.44
2022-08-18T05:17:30.634Z,99457.94
2022-08-18T05:20:00.229Z,99463.09
2022-08-18T05:22:31.161Z,99458.69
2022-08-18T05:27:45.272Z,99475.69
2022-08-18T05:30:15.214Z,99477.19
2022-08-18T05:32:48.593Z,99477.28
2022-08-18T05:35:25.539Z,99480.59
2022-08-18T05:37:59.186Z,99472.84
2022-08-18T05:40:27.403Z,99474.28
2022-08-18T05:42:56.109Z,99482.91
2022-08-18T05:45:24.202Z,99473.63
2022-08-18T05:47:57.640Z,99472.56
2022-08-18T05:50:26.561Z,99469.31
2022-08-18T05:52:58.478Z,99467.13
2022-08-18T05:56:09.388Z,99476.53
2022-08-18T05:58:40.582Z,99474.41
2022-08-18T06:01:15.507Z,99471.91
2022-08-18T06:03:56.376Z,99475.72
2022-08-18T06:06:26.314Z,99480.38
2022-08-18T06:09:16.525Z,99481.72
2022-08-18T06:11:44.482Z,99480.38
2022-08-18T06:14:13.505Z,99487.56
2022-08-18T06:16:56.445Z,99485.91
2022-08-18T06:19:49.542Z,99489.38
2022-08-18T06:22:31.438Z,99487.44
2022-08-18T06:25:11.714Z,99484.81
2022-08-18T06:27:51.704Z,99487.44
2022-08-18T06:30:23.619Z,99485.22
2022-08-18T06:33:01.118Z,99483.47
2022-08-18T06:35:39.760Z,99483.72
2022-08-18T06:38:32.795Z,99487.66
2022-08-18T06:41:09.043Z,99478.47
2022-08-18T06:44:09.489Z,99488.06
2022-08-18T06:47:00.514Z,99482.56
2022-08-18T06:49:46.692Z,99488.69
2022-08-18T06:52:26.446Z,99489.44
2022-08-18T06:54:56.078Z,99471.41
2022-08-18T06:57:34.774Z,99472.19
2022-08-18T07:00:09.779Z,99468.94
2022-08-18T07:03:00.727Z,99467.28
2022-08-18T07:05:33.088Z,99456.12
2022-08-18T07:08:10.721Z,99464.06
2022-08-18T07:10:49.494Z,99467.28
2022-08-18T07:13:29.998Z,99462.00
2022-08-18T07:16:17.317Z,99472.59
2022-08-18T07:18:48.327Z,99471.22
2022-08-18T07:21:31.056Z,99464.81
2022-08-18T07:24:23.754Z,99459.87
2022-08-18T07:27:04.623Z,99458.13
2022-08-18T07:29:35.634Z,99459.00
2022-08-18T07:32:15.499Z,99459.03
2022-08-18T07:34:53.687Z,99459.84
2022-08-18T07:37:33.298Z,99451.78
2022-08-18T07:40:45.265Z,99440.38
2022-08-18T07:43:18.308Z,99446.31
2022-08-18T07:45:46.720Z,99457.16
2022-08-18T07:51:17.189Z,99450.31
2022-08-18T07:53:59.711Z,99454.69
2022-08-18T07:56:40.028Z,99470.47
2022-08-18T07:59:19.592Z,99473.59
2022-08-18T08:02:24.729Z,99468.72
2022-08-18T08:05:37.218Z,99473.56
2022-08-18T08:08:19.138Z,99481.88
2022-08-18T08:11:11.230Z,99487.12
2022-08-18T08:13:56.481Z,99490.53
2022-08-18T08:16:53.563Z,99499.38
2022-08-18T08:20:01.245Z,99494.66
2022-08-18T08:22:49.843Z,99497.75
2022-08-18T08:26:04.713Z,99503.78
2022-08-18T08:28:45.110Z,99495.28
2022-08-18T08:31:38.971Z,99488.59
2022-08-18T08:34:33.420Z,99495.31
2022-08-18T08:37:04.542Z,99484.00
2022-08-18T08:39:37.807Z,99483.88
2022-08-18T08:42:31.629Z,99481.44
2022-08-18T08:45:04.749Z,99475.03
2022-08-18T08:47:44.452Z,99469.75
2022-08-18T08:50:20.264Z,99463.81
2022-08-18T08:52:56.690Z,99463.22
2022-08-18T08:55:27.705Z,99460.09
2022-08-18T08:58:01.074Z,99458.81
2022-08-18T09:00:29.612Z,99464.56
2022-08-18T09:03:30.086Z,99457.22
2022-08-18T09:06:20.274Z,99464.03
2022-08-18T09:09:06.349Z,99464.22
2022-08-18T09:11:46.316Z,99466.44
2022-08-18T09:14:26.131Z,99454.97
2022-08-18T09:17:30.041Z,99461.66
2022-08-18T09:20:27.897Z,99460.37
2022-08-18T09:23:20.004Z,99451.38
2022-08-18T09:25:52.052Z,99450.47
2022-08-18T09:28:29.105Z,99451.97
2022-08-18T09:31:02.517Z,99454.47
2022-08-18T09:33:34.485Z,99461.03
2022-08-18T09:36:43.760Z,99452.87
2022-08-18T09:39:54.737Z,99444.66
2022-08-18T09:42:48.621Z,99438.38
2022-08-18T09:45:33.510Z,99429.63
2022-08-18T09:48:25.286Z,99431.56
2022-08-18T09:51:17.798Z,99411.28
2022-08-18T09:53:54.117Z,99407.44
2022-08-18T09:59:37.305Z,99399.44
2022-08-18T10:02:14.070Z,99399.19
2022-08-18T10:04:51.206Z,99385.94
2022-08-18T10:11:02.316Z,99376.34
2022-08-18T10:13:49.621Z,99373.00
2022-08-18T10:20:25.907Z,99383.03
2022-08-18T10:22:57.299Z,99384.41
2022-08-18T10:25:41.896Z,99378.16
2022-08-18T10:28:12.752Z,99387.44
2022-08-18T10:30:56.249Z,99380.47
2022-08-18T10:33:59.671Z,99379.97
2022-08-18T10:36:45.287Z,99369.47
2022-08-18T10:39:16.922Z,99378.63
2022-08-18T10:42:11.022Z,99371.56
2022-08-18T10:44:43.265Z,99376.97
2022-08-18T10:47:25.123Z,99375.09
2022-08-18T10:50:07.255Z,99366.13
2022-08-18T10:52:51.065Z,99360.00
2022-08-18T10:55:47.888Z,99355.38
2022-08-18T10:58:42.552Z,99363.38
2022-08-18T11:01:24.875Z,99369.00
2022-08-18T11:04:00.315Z,99361.44
2022-08-18T11:06:49.241Z,99361.03
2022-08-18T11:09:28.732Z,99353.91
2022-08-18T11:12:01.935Z,99357.81
2022-08-18T11:14:51.845Z,99351.13
2022-08-18T11:17:40.669Z,99356.50
2022-08-18T11:20:12.169Z,99353.53
2022-08-18T11:22:51.995Z,99359.25
2022-08-18T11:25:24.258Z,99355.06
2022-08-18T11:27:53.095Z,99343.41
2022-08-18T11:30:21.328Z,99344.16
2022-08-18T11:33:01.280Z,99339.53
2022-08-18T11:35:51.066Z,99323.00
2022-08-18T11:38:23.597Z,99324.44
2022-08-18T11:41:14.341Z,99316.66
2022-08-18T11:43:46.809Z,99297.97
2022-08-18T11:46:29.368Z,99305.56
2022-08-18T11:49:01.010Z,99311.09
2022-08-18T11:51:32.391Z,99309.84
2022-08-18T11:54:15.453Z,99312.88
2022-08-18T11:56:44.345Z,99306.13
2022-08-18T11:59:52.244Z,99299.66
2022-08-18T12:02:17.250Z,99309.00
2022-08-18T12:04:50.516Z,99293.59
2022-08-18T12:07:27.839Z,99301.81
2022-08-18T12:13:08.130Z,99283.09
2022-08-18T12:15:46.596Z,99286.69
2022-08-18T12:18:26.374Z,99282.41
2022-08-18T12:20:58.594Z,99274.47
2022-08-18T12:23:26.708Z,99260.06
2022-08-18T12:25:54.117Z,99260.53
2022-08-18T12:28:22.398Z,99253.56
2022-08-18T12:30:56.071Z,99247.59
2022-08-18T12:33:25.294Z,99250.47
2022-08-18T12:36:05.991Z,99237.47
2022-08-18T12:38:36.491Z,99244.72
2022-08-18T12:41:05.420Z,99245.34
2022-08-18T12:46:21.325Z,99255.66
2022-08-18T12:48:53.103Z,99267.31
2022-08-18T12:51:24.688Z,99252.19
2022-08-18T12:54:00.021Z,99268.91
2022-08-18T12:56:31.068Z,99269.41
2022-08-18T12:59:01.284Z,99275.75
2022-08-18T13:01:33.470Z,99278.50
2022-08-18T13:04:11.087Z,99282.34
2022-08-18T13:06:59.332Z,99278.84
2022-08-18T13:09:35.015Z,99281.53
2022-08-18T13:12:16.693Z,99282.97
2022-08-18T13:14:45.522Z,99284.44
2022-08-18T13:17:32.891Z,99275.84
2022-08-18T13:20:11.238Z,99280.41
2022-08-18T13:22:41.395Z,99281.62
2022-08-18T13:25:12.533Z,99280.69
2022-08-18T13:27:43.595Z,99275.06
2022-08-18T13:30:31.427Z,99282.63
2022-08-18T13:33:05.564Z,99278.28
2022-08-18T13:35:52.097Z,99278.63
2022-08-18T13:38:25.983Z,99271.13
2022-08-18T13:40:58.179Z,99268.81
2022-08-18T13:43:32.365Z,99272.97
2022-08-18T13:46:06.057Z,99282.25
2022-08-18T13:48:33.851Z,99279.28
2022-08-18T13:51:02.344Z,99275.84
2022-08-18T13:53:31.617Z,99274.03
2022-08-18T13:56:00.062Z,99275.06
2022-08-18T13:58:29.188Z,99279.56
2022-08-18T14:01:22.676Z,99284.81
2022-08-18T14:03:48.184Z,99281.09
2022-08-18T14:06:22.110Z,99281.62
2022-08-18T14:08:52.721Z,99285.69
2022-08-18T14:11:23.656Z,99286.19
2022-08-18T14:13:54.679Z,99290.25
2022-08-18T14:16:26.783Z,99284.66
2022-08-18T14:19:14.016Z,99288.25
2022-08-18T14:22:11.217Z,99285.31
2022-08-18T14:25:00.224Z,99291.31
2022-08-18T14:27:34.906Z,99296.16
2022-08-18T14:30:11.545Z,99290.34
2022-08-18T14:32:48.941Z,99296.06
2022-08-18T14:35:33.361Z,99292.81
2022-08-18T14:38:07.171Z,99282.22
2022-08-18T14:40:41.789Z,99292.53
2022-08-18T14:43:16.099Z,99286.91
2022-08-18T14:45:48.837Z,99291.69
2022-08-18T14:48:19.065Z,99286.19
2022-08-18T14:50:53.058Z,99286.81
2022-08-18T14:53:22.818Z,99283.16
2022-08-18T14:55:52.667Z,99276.41
2022-08-18T14:58:24.404Z,99280.47
2022-08-18T15:00:53.853Z,99276.47
2022-08-18T15:03:28.328Z,99269.69
2022-08-18T15:06:04.576Z,99270.28
2022-08-18T15:08:35.285Z,99264.66
2022-08-18T15:11:06.154Z,99266.53
2022-08-18T15:13:42.228Z,99258.16
2022-08-18T15:16:13.801Z,99260.56
2022-08-18T15:18:43.468Z,99263.78
2022-08-18T15:21:38.416Z,99257.88
2022-08-18T15:24:26.039Z,99270.28
2022-08-18T15:26:57.472Z,99278.50
2022-08-18T15:29:28.973Z,99270.13
2022-08-18T15:32:05.665Z,99267.13
2022-08-18T15:34:47.342Z,99268.59
2022-08-18T15:37:24.433Z,99284.19
2022-08-18T15:40:02.832Z,99281.38
2022-08-18T15:42:30.961Z,99283.81
2022-08-18T15:45:11.537Z,99285.59
2022-08-18T15:47:43.186Z,99286.13
2022-08-18T15:50:25.651Z,99272.22
2022-08-18T15:52:57.728Z,99264.44
2022-08-18T15:55:28.658Z,99265.38
2022-08-18T15:57:58.255Z,99259.88
2022-08-18T16:00:28.479Z,99262.66
2022-08-18T16:03:00.192Z,99256.63
2022-08-18T16:05:33.583Z,99256.41
2022-08-18T16:08:01.462Z,99252.97
2022-08-18T16:10:32.376Z,99256.63
2022-08-18T16:13:01.668Z,99259.97
2022-08-18T16:15:30.892Z,99253.94
2022-08-18T16:17:59.379Z,99261.81
2022-08-18T16:20:29.355Z,99256.06
2022-08-18T16:22:59.916Z,99263.00
2022-08-18T16:25:27.583Z,99259.09
2022-08-18T16:27:55.587Z,99258.88
2022-08-18T16:30:25.749Z,99255.66
2022-08-18T16:32:53.450Z,99255.44
2022-08-18T16:35:23.161Z,99256.09
2022-08-18T16:37:50.971Z,99253.31
2022-08-18T16:40:19.364Z,99257.31
2022-08-18T16:42:47.239Z,99255.13
2022-08-18T16:45:22.011Z,99260.34
2022-08-18T16:47:49.652Z,99256.59
2022-08-18T16:50:20.085Z,99260.47
2022-08-18T16:52:47.929Z,99247.06
2022-08-18T16:55:15.371Z,99247.56
2022-08-18T16:58:02.855Z,99243.50
2022-08-18T17:00:55.077Z,99239.94
2022-08-18T17:03:42.889Z,99236.22
2022-08-18T17:06:13.976Z,99227.34
2022-08-18T17:08:42.622Z,99223.81
2022-08-18T17:11:13.868Z,99231.75
2022-08-18T17:13:42.650Z,99224.06
2022-08-18T17:16:11.028Z,99216.34
2022-08-18T17:18:38.798Z,99220.00
2022-08-18T17:21:07.905Z,99213.44
2022-08-18T17:23:38.735Z,99211.47
2022-08-18T17:26:10.076Z,99209.69
2022-08-18T17:28:50.758Z,99199.66
2022-08-18T17:31:22.631Z,99195.75
2022-08-18T17:33:52.146Z,99170.63
2022-08-18T17:36:23.570Z,99163.66
2022-08-18T17:38:54.723Z,99170.44
2022-08-18T17:41:23.686Z,99186.66
2022-08-18T17:43:52.452Z,99186.03
2022-08-18T17:46:27.391Z,99188.59
2022-08-18T17:49:04.017Z,99200.66
2022-08-18T17:51:43.486Z,99201.19
2022-08-18T17:54:19.174Z,99205.31
2022-08-18T17:56:52.742Z,99211.56
2022-08-18T17:59:45.740Z,99203.22
2022-08-18T18:02:28.557Z,99211.44
2022-08-18T18:04:58.454Z,99204.53
2022-08-18T18:07:54.816Z,99207.97
2022-08-18T18:10:27.578Z,99209.88
2022-08-18T18:13:34.275Z,99222.25
2022-08-18T18:16:20.949Z,99225.53
2022-08-18T18:18:59.877Z,99229.16
2022-08-18T18:22:00.356Z,99225.50
2022-08-18T18:24:24.029Z,99232.06
2022-08-18T18:26:52.350Z,99244.94
2022-08-18T18:29:37.387Z,99241.38
2022-08-18T18:32:24.380Z,99253.84
2022-08-18T18:35:31.352Z,99253.25
2022-08-18T18:38:05.435Z,99254.37
2022-08-18T18:40:37.296Z,99257.62
2022-08-18T18:43:39.432Z,99247.22
2022-08-18T18:46:18.355Z,99249.25
2022-08-18T18:49:01.770Z,99253.09
2022-08-18T18:51:38.408Z,99248.13
2022-08-18T18:54:15.026Z,99262.91
2022-08-18T18:56:49.437Z,99259.41
2022-08-18T18:59:28.913Z,99264.06
2022-08-18T19:02:34.498Z,99257.03
2022-08-18T19:05:35.218Z,99250.03
2022-08-18T19:08:20.847Z,99252.56
2022-08-18T19:11:01.649Z,99252.38
2022-08-18T19:13:34.955Z,99251.28
2022-08-18T19:16:24.349Z,99257.88
2022-08-18T19:19:38.009Z,99259.91
2022-08-18T19:22:27.397Z,99252.06
2022-08-18T19:25:21.844Z,99252.88
2022-08-18T19:28:07.729Z,99246.00
2022-08-18T19:30:39.500Z,99252.19
2022-08-18T19:33:07.762Z,99243.56
2022-08-18T19:35:58.746Z,99245.47
2022-08-18T19:38:37.024Z,99242.66
2022-08-18T19:41:11.001Z,99247.84
2022-08-18T19:44:04.725Z,99252.72
2022-08-18T19:46:45.306Z,99251.34
2022-08-18T19:49:31.614Z,99263.03
2022-08-18T19:52:46.666Z,99276.16
2022-08-18T19:55:18.112Z,99267.81
2022-08-18T19:58:01.695Z,99261.19
2022-08-18T20:00:56.351Z,99265.47
2022-08-18T20:03:33.848Z,99255.53
2022-08-18T20:06:33.620Z,99265.31
2022-08-18T20:09:21.348Z,99269.59
2022-08-18T20:11:52.535Z,99259.44
2022-08-18T20:14:20.343Z,99271.03
2022-08-18T20:17:09.613Z,99264.13
2022-08-18T20:19:43.207Z,99259.22
2022-08-18T20:22:32.260Z,99255.97
2022-08-18T20:25:17.612Z,99261.94
2022-08-18T20:27:58.472Z,99269.03
2022-08-18T20:30:47.332Z,99259.41
2022-08-18T20:33:24.209Z,99259.13
2022-08-18T20:36:03.973Z,99265.16
2022-08-18T20:38:37.475Z,99261.34
2022-08-18T20:41:50.576Z,99260.75
2022-08-18T20:44:47.959Z,99261.44
2022-08-18T20:47:34.311Z,99260.09
2022-08-18T20:50:31.655Z,99260.41
2022-08-18T20:53:19.187Z,99265.66
2022-08-18T20:56:43.470Z,99270.16
2022-08-18T20:59:20.158Z,99285.91
2022-08-18T21:02:00.044Z,99294.53
2022-08-18T21:04:48.704Z,99304.03
2022-08-18T21:07:36.224Z,99314.41
2022-08-18T21:10:20.635Z,99304.69
2022-08-18T21:12:54.997Z,99308.50
2022-08-18T21:15:26.156Z,99312.50
2022-08-18T21:18:17.666Z,99318.50
2022-08-18T21:20:50.941Z,99320.91
2022-08-18T21:23:35.699Z,99331.25
2022-08-18T21:26:07.270Z,99326.88
2022-08-18T21:28:36.777Z,99333.00
2022-08-18T21:31:29.200Z,99323.84
2022-08-18T21:34:33.382Z,99337.72
2022-08-18T21:37:06.458Z,99343.94
2022-08-18T21:39:35.247Z,99345.78
2022-08-18T21:42:02.953Z,99355.81
2022-08-18T21:44:44.549Z,99353.81
2022-08-18T21:47:21.500Z,99355.19
2022-08-18T21:50:14.850Z,99354.22
2022-08-18T21:52:56.945Z,99360.94
2022-08-18T21:55:39.853Z,99360.81
2022-08-18T21:58:19.772Z,99369.50
2022-08-18T22:01:23.124Z,99364.78
2022-08-18T22:03:59.579Z,99373.72
2022-08-18T22:06:28.551Z,99365.44
2022-08-18T22:09:30.411Z,99372.44
2022-08-18T22:12:35.280Z,99376.78
2022-08-18T22:15:23.072Z,99383.59
2022-08-18T22:17:51.796Z,99397.13
2022-08-18T22:20:38.278Z,99388.03
2022-08-18T22:23:43.111Z,99391.47
2022-08-18T22:26:17.957Z,99390.94
2022-08-18T22:29:00.558Z,99401.25
2022-08-18T22:31:31.511Z,99405.78
2022-08-18T22:34:06.354Z,99409.56
2022-08-18T22:36:40.415Z,99406.41
2022-08-18T22:39:10.204Z,99400.66
2022-08-18T22:41:38.735Z,99402.34
2022-08-18T22:44:07.112Z,99404.66
2022-08-18T22:46:35.352Z,99408.06
2022-08-18T22:49:04.510Z,99395.28
2022-08-18T22:51:32.914Z,99405.28
2022-08-18T22:54:00.358Z,99404.38
2022-08-18T22:56:34.958Z,99404.16
2022-08-18T22:59:16.032Z,99403.84
2022-08-18T23:01:48.132Z,99396.16
2022-08-18T23:04:21.174Z,99399.84
2022-08-18T23:06:52.455Z,99403.09
2022-08-18T23:09:25.974Z,99401.47
2022-08-18T23:11:55.826Z,99390.28
2022-08-18T23:14:23.697Z,99388.12
2022-08-18T23:16:51.311Z,99382.53
2022-08-18T23:19:20.387Z,99378.50
2022-08-18T23:21:48.725Z,99374.19
2022-08-18T23:24:21.581Z,99369.31
2022-08-18T23:26:49.978Z,99369.16
2022-08-18T23:29:19.844Z,99358.38
2022-08-18T23:31:48.467Z,99367.19
2022-08-18T23:34:20.074Z,99358.88
2022-08-18T23:36:55.543Z,99362.47
2022-08-18T23:39:25.290Z,99358.72
2022-08-18T23:41:53.732Z,99359.50
2022-08-18T23:44:23.942Z,99361.66
2022-08-18T23:46:58.054Z,99354.63
2022-08-18T23:49:30.464Z,99355.47
2022-08-18T23:51:59.288Z,99356.03
2022-08-18T23:54:30.616Z,99360.31
2022-08-18T23:56:58.267Z,99364.97
2022-08-18T23:59:27.136Z,99364.38
